createdAt,value
2022-08-28T00:01:46.996Z,100311.45
2022-08-28T00:04:21.878Z,100312.48
2022-08-28T00:10:11.688Z,100314.90
2022-08-28T00:12:44.150Z,100317.55
2022-08-28T00:15:22.740Z,100319.88
2022-08-28T00:17:58.106Z,100318.86
2022-08-28T00:20:31.851Z,100320.52
2022-08-28T00:23:06.034Z,100322.33
2022-08-28T00:28:23.735Z,100327.93
2022-08-28T00:30:59.205Z,100328.88
2022-08-28T00:33:33.682Z,100330.09
2022-08-28T00:36:10.280Z,100330.38
2022-08-28T00:38:41.208Z,100330.18
2022-08-28T00:41:13.605Z,100331.14
2022-08-28T00:43:47.150Z,100328.63
2022-08-28T00:46:20.137Z,100329.84
2022-08-28T00:48:53.117Z,100327.67
2022-08-28T00:51:41.362Z,100328.67
2022-08-28T00:54:12.311Z,100333.70
2022-08-28T00:56:43.361Z,100330.60
2022-08-28T00:59:19.515Z,100334.36
2022-08-28T01:01:54.780Z,100339.16
2022-08-28T01:04:30.453Z,100333.36
2022-08-28T01:07:05.663Z,100332.89
2022-08-28T01:09:38.243Z,100331.98
2022-08-28T01:12:12.223Z,100333.60
2022-08-28T01:14:45.957Z,100336.73
2022-08-28T01:17:20.868Z,100336.76
2022-08-28T01:19:56.648Z,100335.68
2022-08-28T01:22:30.593Z,100334.15
2022-08-28T01:25:06.999Z,100337.84
2022-08-28T01:27:37.806Z,100339.79
2022-08-28T01:30:11.114Z,100336.34
2022-08-28T01:32:42.527Z,100331.94
2022-08-28T01:35:21.099Z,100331.17
2022-08-28T01:37:57.593Z,100328.69
2022-08-28T01:40:31.067Z,100331.95
2022-08-28T01:43:12.727Z,100328.83
2022-08-28T01:45:45.754Z,100331.22
2022-08-28T01:48:17.021Z,100328.26
2022-08-28T01:50:50.777Z,100327.48
2022-08-28T01:53:26.388Z,100325.90
2022-08-28T01:56:08.215Z,100327.15
2022-08-28T01:58:39.703Z,100327.60
2022-08-28T02:01:13.474Z,100327.65
2022-08-28T02:03:44.379Z,100327.21
2022-08-28T02:06:15.636Z,100326.95
2022-08-28T02:08:49.961Z,100326.77
2022-08-28T02:11:24.069Z,100329.88
2022-08-28T02:13:58.062Z,100329.15
2022-08-28T02:16:33.178Z,100330.31
2022-08-28T02:19:06.539Z,100332.00
2022-08-28T02:21:42.228Z,100337.19
2022-08-28T02:24:19.813Z,100338.52
2022-08-28T02:26:50.480Z,100338.83
2022-08-28T02:29:23.818Z,100341.23
2022-08-28T02:31:54.475Z,100345.52
2022-08-28T02:34:34.937Z,100343.67
2022-08-28T02:37:09.418Z,100336.70
2022-08-28T02:39:45.591Z,100338.75
2022-08-28T02:42:16.468Z,100338.02
2022-08-28T02:44:50.255Z,100336.42
2022-08-28T02:47:28.713Z,100341.19
2022-08-28T02:50:03.640Z,100339.84
2022-08-28T02:52:35.707Z,100342.30
2022-08-28T02:55:07.847Z,100342.91
2022-08-28T02:57:40.161Z,100347.64
2022-08-28T03:00:16.281Z,100350.35
2022-08-28T03:02:48.386Z,100352.93
2022-08-28T03:05:27.398Z,100352.67
2022-08-28T03:08:01.547Z,100359.55
2022-08-28T03:10:34.896Z,100360.82
2022-08-28T03:13:08.118Z,100361.73
2022-08-28T03:15:43.829Z,100362.34
2022-08-28T03:18:18.367Z,100361.32
2022-08-28T03:20:49.603Z,100364.81
2022-08-28T03:23:29.553Z,100361.77
2022-08-28T03:26:01.220Z,100365.91
2022-08-28T03:28:37.961Z,100373.40
2022-08-28T03:31:11.193Z,100376.09
2022-08-28T03:33:44.897Z,100378.98
2022-08-28T03:36:17.710Z,100376.89
2022-08-28T03:38:51.289Z,100379.95
2022-08-28T03:41:27.437Z,100380.21
2022-08-28T03:44:00.879Z,100379.73
2022-08-28T03:46:35.174Z,100385.09
2022-08-28T03:49:08.250Z,100384.45
2022-08-28T03:51:38.970Z,100388.81
2022-08-28T03:54:09.692Z,100390.31
2022-08-28T03:56:42.357Z,100388.92
2022-08-28T03:59:15.892Z,100389.52
2022-08-28T04:01:46.660Z,100390.08
2022-08-28T04:04:17.473Z,100394.73
2022-08-28T04:06:48.488Z,100396.78
2022-08-28T04:09:22.010Z,100396.79
2022-08-28T04:11:54.381Z,100397.48
2022-08-28T04:14:27.592Z,100394.73
2022-08-28T04:17:01.642Z,100391.13
2022-08-28T04:19:33.486Z,100390.60
2022-08-28T04:22:05.219Z,100389.40
2022-08-28T04:24:36.208Z,100389.41
2022-08-28T04:27:07.003Z,100390.12
2022-08-28T04:29:40.782Z,100388.73
2022-08-28T04:32:11.720Z,100392.77
2022-08-28T04:34:42.460Z,100390.65
2022-08-28T04:37:14.636Z,100389.04
2022-08-28T04:39:46.739Z,100395.27
2022-08-28T04:42:21.198Z,100396.64
2022-08-28T04:44:52.001Z,100397.28
2022-08-28T04:47:26.281Z,100398.20
2022-08-28T04:49:58.775Z,100404.38
2022-08-28T04:52:29.672Z,100406.90
2022-08-28T04:55:05.246Z,100404.96
2022-08-28T04:57:36.596Z,100408.21
2022-08-28T05:00:16.073Z,100410.46
2022-08-28T05:02:46.995Z,100412.36
2022-08-28T05:05:20.236Z,100414.34
2022-08-28T05:07:53.980Z,100415.39
2022-08-28T05:10:27.176Z,100415.42
2022-08-28T05:13:00.317Z,100418.55
2022-08-28T05:15:32.803Z,100416.55
2022-08-28T05:18:03.444Z,100416.15
2022-08-28T05:20:38.061Z,100420.02
2022-08-28T05:23:12.865Z,100422.66
2022-08-28T05:25:45.290Z,100421.73
2022-08-28T05:28:20.670Z,100424.80
2022-08-28T05:30:51.509Z,100424.20
2022-08-28T05:33:22.584Z,100428.98
2022-08-28T05:35:53.513Z,100426.98
2022-08-28T05:38:29.944Z,100423.06
2022-08-28T05:41:00.661Z,100425.58
2022-08-28T05:43:32.390Z,100428.54
2022-08-28T05:46:03.654Z,100428.00
2022-08-28T05:48:37.112Z,100424.17
2022-08-28T05:51:15.240Z,100427.25
2022-08-28T05:53:46.842Z,100426.64
2022-08-28T05:56:20.777Z,100427.73
2022-08-28T05:58:51.498Z,100429.23
2022-08-28T06:01:27.255Z,100433.74
2022-08-28T06:04:01.248Z,100433.30
2022-08-28T06:06:35.045Z,100433.55
2022-08-28T06:09:11.717Z,100437.48
2022-08-28T06:11:44.731Z,100438.47
2022-08-28T06:14:19.756Z,100438.67
2022-08-28T06:16:52.295Z,100439.33
2022-08-28T06:19:26.035Z,100443.26
2022-08-28T06:22:00.078Z,100441.11
2022-08-28T06:24:32.942Z,100444.27
2022-08-28T06:27:17.921Z,100441.38
2022-08-28T06:29:48.990Z,100440.09
2022-08-28T06:32:23.093Z,100438.37
2022-08-28T06:34:56.030Z,100437.61
2022-08-28T06:37:27.659Z,100437.76
2022-08-28T06:40:01.870Z,100439.15
2022-08-28T06:42:37.343Z,100440.45
2022-08-28T06:45:15.964Z,100446.73
2022-08-28T06:47:50.516Z,100445.42
2022-08-28T06:50:28.792Z,100442.13
2022-08-28T06:53:00.373Z,100446.54
2022-08-28T06:55:37.117Z,100443.15
2022-08-28T06:58:27.844Z,100442.67
2022-08-28T07:04:01.101Z,100438.38
2022-08-28T07:06:39.609Z,100437.83
2022-08-28T07:09:41.134Z,100435.97
2022-08-28T07:12:14.084Z,100435.71
2022-08-28T07:15:26.049Z,100435.65
2022-08-28T07:17:51.625Z,100435.02
2022-08-28T07:20:36.660Z,100436.96
2022-08-28T07:23:29.346Z,100430.97
2022-08-28T07:26:06.009Z,100430.56
2022-08-28T07:28:42.692Z,100431.92
2022-08-28T07:31:18.243Z,100431.83
2022-08-28T07:34:00.291Z,100430.19
2022-08-28T07:36:32.385Z,100431.21
2022-08-28T07:39:03.158Z,100431.11
2022-08-28T07:41:39.384Z,100430.45
2022-08-28T07:44:28.798Z,100428.93
2022-08-28T07:47:04.393Z,100426.70
2022-08-28T07:49:35.886Z,100428.52
2022-08-28T07:52:08.472Z,100434.60
2022-08-28T07:54:43.725Z,100434.53
2022-08-28T07:57:14.650Z,100433.44
2022-08-28T07:59:47.664Z,100438.35
2022-08-28T08:02:19.632Z,100438.17
2022-08-28T08:04:52.496Z,100439.42
2022-08-28T08:07:23.400Z,100442.41
2022-08-28T08:09:54.021Z,100437.98
2022-08-28T08:12:26.540Z,100437.41
2022-08-28T08:15:02.657Z,100435.21
2022-08-28T08:17:37.862Z,100438.48
2022-08-28T08:20:13.254Z,100438.45
2022-08-28T08:22:44.359Z,100440.94
2022-08-28T08:25:18.367Z,100440.46
2022-08-28T08:27:52.070Z,100438.70
2022-08-28T08:30:25.623Z,100440.60
2022-08-28T08:32:59.447Z,100439.89
2022-08-28T08:35:33.833Z,100437.99
2022-08-28T08:38:05.805Z,100438.64
2022-08-28T08:40:40.102Z,100438.62
2022-08-28T08:43:14.464Z,100439.46
2022-08-28T08:45:47.827Z,100436.42
2022-08-28T08:48:25.313Z,100436.90
2022-08-28T08:50:59.920Z,100432.45
2022-08-28T08:53:32.332Z,100433.19
2022-08-28T08:56:06.045Z,100438.66
2022-08-28T08:58:37.819Z,100432.05
2022-08-28T09:01:11.596Z,100430.88
2022-08-28T09:03:49.624Z,100426.96
2022-08-28T09:06:31.628Z,100425.00
2022-08-28T09:09:03.747Z,100422.92
2022-08-28T09:11:50.365Z,100420.44
2022-08-28T09:14:31.786Z,100421.67
2022-08-28T09:17:02.817Z,100419.61
2022-08-28T09:19:34.641Z,100414.56
2022-08-28T09:22:12.339Z,100414.27
2022-08-28T09:24:45.491Z,100419.80
2022-08-28T09:27:29.828Z,100417.98
2022-08-28T09:30:07.725Z,100417.07
2022-08-28T09:32:45.003Z,100416.89
2022-08-28T09:35:27.444Z,100413.11
2022-08-28T09:38:17.596Z,100412.83
2022-08-28T09:41:10.750Z,100414.59
2022-08-28T09:43:42.624Z,100414.58
2022-08-28T09:46:18.050Z,100413.30
2022-08-28T09:48:51.028Z,100411.17
2022-08-28T09:51:39.565Z,100411.52
2022-08-28T09:54:14.247Z,100414.33
2022-08-28T09:56:48.980Z,100412.93
2022-08-28T09:59:20.317Z,100411.03
2022-08-28T10:01:55.022Z,100413.82
2022-08-28T10:04:31.528Z,100406.27
2022-08-28T10:07:03.673Z,100404.04
2022-08-28T10:09:38.601Z,100401.19
2022-08-28T10:12:22.578Z,100400.21
2022-08-28T10:14:59.570Z,100406.23
2022-08-28T10:17:34.061Z,100399.48
2022-08-28T10:20:08.585Z,100397.55
2022-08-28T10:22:41.609Z,100400.88
2022-08-28T10:25:25.742Z,100394.02
2022-08-28T10:27:59.572Z,100386.71
2022-08-28T10:30:34.544Z,100391.02
2022-08-28T10:33:21.204Z,100386.90
2022-08-28T10:35:57.491Z,100386.17
2022-08-28T10:38:31.499Z,100385.05
2022-08-28T10:41:14.353Z,100379.96
2022-08-28T10:43:51.453Z,100379.45
2022-08-28T10:46:27.149Z,100379.60
2022-08-28T10:48:59.938Z,100377.40
2022-08-28T10:51:35.262Z,100376.83
2022-08-28T10:54:23.019Z,100374.47
2022-08-28T10:57:00.342Z,100372.77
2022-08-28T10:59:31.187Z,100373.30
2022-08-28T11:02:07.248Z,100372.52
2022-08-28T11:04:37.957Z,100370.69
2022-08-28T11:07:10.788Z,100364.16
2022-08-28T11:09:42.344Z,100366.21
2022-08-28T11:12:33.945Z,100367.89
2022-08-28T11:15:21.015Z,100363.33
2022-08-28T11:17:52.909Z,100359.76
2022-08-28T11:20:25.200Z,100362.96
2022-08-28T11:22:59.799Z,100363.06
2022-08-28T11:25:34.900Z,100360.96
2022-08-28T11:28:20.212Z,100362.70
2022-08-28T11:30:51.737Z,100370.02
2022-08-28T11:33:41.473Z,100365.30
2022-08-28T11:36:15.038Z,100362.41
2022-08-28T11:39:16.403Z,100363.33
2022-08-28T11:42:00.381Z,100358.95
2022-08-28T11:44:44.700Z,100358.83
2022-08-28T11:47:38.957Z,100355.46
2022-08-28T11:50:16.532Z,100351.64
2022-08-28T11:53:04.738Z,100344.92
2022-08-28T11:55:39.836Z,100346.35
2022-08-28T12:00:53.012Z,100339.67
2022-08-28T12:03:28.386Z,100341.63
2022-08-28T12:05:59.328Z,100340.80
2022-08-28T12:08:45.264Z,100340.79
2022-08-28T12:11:37.532Z,100342.98
2022-08-28T12:14:08.320Z,100337.55
2022-08-28T12:17:06.353Z,100333.80
2022-08-28T12:19:41.186Z,100336.96
2022-08-28T12:22:21.708Z,100333.45
2022-08-28T12:25:00.222Z,100335.95
2022-08-28T12:27:31.852Z,100341.18
2022-08-28T12:30:02.811Z,100339.05
2022-08-28T12:32:37.355Z,100344.30
2022-08-28T12:35:17.940Z,100345.38
2022-08-28T12:38:02.411Z,100337.33
2022-08-28T12:40:38.864Z,100334.41
2022-08-28T12:43:10.618Z,100326.30
2022-08-28T12:45:47.226Z,100324.23
2022-08-28T12:48:19.096Z,100323.64
2022-08-28T12:50:50.525Z,100323.34
2022-08-28T12:53:22.915Z,100322.63
2022-08-28T12:55:54.776Z,100326.70
2022-08-28T12:58:34.463Z,100324.80
2022-08-28T13:01:20.667Z,100326.76
2022-08-28T13:03:54.841Z,100325.44
2022-08-28T13:06:28.873Z,100321.13
2022-08-28T13:09:03.540Z,100315.96
2022-08-28T13:11:41.475Z,100312.39
2022-08-28T13:14:12.333Z,100313.21
2022-08-28T13:16:43.683Z,100312.40
2022-08-28T13:19:27.544Z,100308.15
2022-08-28T13:22:02.966Z,100308.22
2022-08-28T13:24:42.430Z,100307.33
2022-08-28T13:27:29.358Z,100309.30
2022-08-28T13:30:04.304Z,100306.55
2022-08-28T13:32:38.676Z,100302.29
2022-08-28T13:35:29.860Z,100304.16
2022-08-28T13:38:03.633Z,100304.36
2022-08-28T13:43:27.570Z,100303.10
2022-08-28T13:45:59.500Z,100303.63
2022-08-28T13:48:32.395Z,100306.99
2022-08-28T13:51:05.181Z,100305.85
2022-08-28T13:53:41.748Z,100301.76
2022-08-28T13:56:15.407Z,100297.39
2022-08-28T13:58:50.029Z,100297.71
2022-08-28T14:01:51.525Z,100292.73
2022-08-28T14:04:25.571Z,100293.79
2022-08-28T14:06:56.601Z,100290.41
2022-08-28T14:09:29.416Z,100290.52
2022-08-28T14:12:08.446Z,100290.78
2022-08-28T14:14:43.720Z,100290.55
2022-08-28T14:17:19.239Z,100290.07
2022-08-28T14:19:50.236Z,100288.79
2022-08-28T14:22:22.163Z,100289.92
2022-08-28T14:24:55.263Z,100289.17
2022-08-28T14:27:32.375Z,100290.73
2022-08-28T14:30:06.138Z,100288.34
2022-08-28T14:32:41.197Z,100291.88
2022-08-28T14:35:18.076Z,100290.70
2022-08-28T14:37:51.037Z,100288.65
2022-08-28T14:40:25.200Z,100289.18
2022-08-28T14:42:56.007Z,100294.40
2022-08-28T14:45:33.973Z,100294.56
2022-08-28T14:48:04.947Z,100289.59
2022-08-28T14:50:43.297Z,100292.42
2022-08-28T14:53:15.226Z,100288.19
2022-08-28T14:55:47.632Z,100292.60
2022-08-28T14:58:19.609Z,100291.67
2022-08-28T15:00:51.103Z,100288.67
2022-08-28T15:03:24.708Z,100293.02
2022-08-28T15:06:08.612Z,100297.08
2022-08-28T15:08:39.916Z,100294.01
2022-08-28T15:11:19.038Z,100294.33
2022-08-28T15:13:51.831Z,100293.81
2022-08-28T15:16:29.839Z,100294.20
2022-08-28T15:19:02.981Z,100292.95
2022-08-28T15:21:35.662Z,100292.55
2022-08-28T15:24:08.828Z,100290.83
2022-08-28T15:26:40.425Z,100291.59
2022-08-28T15:29:12.173Z,100289.80
2022-08-28T15:31:44.542Z,100289.73
2022-08-28T15:34:18.636Z,100287.05
2022-08-28T15:36:55.645Z,100285.09
2022-08-28T15:39:45.748Z,100285.34
2022-08-28T15:42:21.361Z,100286.02
2022-08-28T15:44:54.900Z,100283.55
2022-08-28T15:47:27.922Z,100282.92
2022-08-28T15:49:58.553Z,100280.38
2022-08-28T15:52:32.301Z,100282.11
2022-08-28T15:55:10.505Z,100276.26
2022-08-28T15:57:41.792Z,100272.60
2022-08-28T16:00:13.816Z,100275.66
2022-08-28T16:02:50.203Z,100264.27
2022-08-28T16:05:22.861Z,100267.20
2022-08-28T16:07:55.373Z,100265.05
2022-08-28T16:10:28.258Z,100265.92
2022-08-28T16:13:03.365Z,100265.86
2022-08-28T16:15:34.260Z,100266.02
2022-08-28T16:18:09.109Z,100264.90
2022-08-28T16:20:39.980Z,100263.70
2022-08-28T16:23:12.793Z,100262.73
2022-08-28T16:25:43.524Z,100262.13
2022-08-28T16:28:14.528Z,100262.63
2022-08-28T16:30:50.014Z,100266.38
2022-08-28T16:33:23.125Z,100268.07
2022-08-28T16:35:56.468Z,100264.23
2022-08-28T16:38:27.499Z,100270.15
2022-08-28T16:40:58.556Z,100272.09
2022-08-28T16:43:29.313Z,100272.23
2022-08-28T16:46:01.334Z,100274.91
2022-08-28T16:48:37.630Z,100278.90
2022-08-28T16:51:11.157Z,100281.98
2022-08-28T16:53:48.456Z,100280.42
2022-08-28T16:56:23.924Z,100286.09
2022-08-28T16:58:56.174Z,100287.34
2022-08-28T17:01:28.292Z,100289.33
2022-08-28T17:04:16.026Z,100290.17
2022-08-28T17:06:52.336Z,100293.30
2022-08-28T17:09:28.015Z,100293.68
2022-08-28T17:12:04.875Z,100294.41
2022-08-28T17:14:35.943Z,100298.20
2022-08-28T17:17:06.841Z,100305.20
2022-08-28T17:19:43.011Z,100306.88
2022-08-28T17:22:31.101Z,100314.07
2022-08-28T17:25:03.360Z,100316.25
2022-08-28T17:27:39.321Z,100321.91
2022-08-28T17:30:12.248Z,100328.05
2022-08-28T17:32:44.413Z,100332.34
2022-08-28T17:35:15.326Z,100333.58
2022-08-28T17:37:53.504Z,100340.52
2022-08-28T17:40:26.835Z,100347.14
2022-08-28T17:42:57.658Z,100348.36
2022-08-28T17:45:28.841Z,100352.02
2022-08-28T17:48:02.660Z,100351.70
2022-08-28T17:50:37.021Z,100354.48
2022-08-28T17:53:11.653Z,100355.11
2022-08-28T17:55:43.987Z,100354.61
2022-08-28T17:58:14.964Z,100360.11
2022-08-28T18:00:47.572Z,100367.02
2022-08-28T18:03:20.825Z,100365.72
2022-08-28T18:05:55.702Z,100365.42
2022-08-28T18:08:28.934Z,100371.27
2022-08-28T18:11:00.801Z,100372.79
2022-08-28T18:13:33.926Z,100373.56
2022-08-28T18:16:07.811Z,100379.07
2022-08-28T18:18:39.143Z,100378.16
2022-08-28T18:21:12.631Z,100381.64
2022-08-28T18:23:43.738Z,100378.23
2022-08-28T18:26:23.602Z,100379.76
2022-08-28T18:28:55.016Z,100376.93
2022-08-28T18:31:28.919Z,100380.55
2022-08-28T18:34:01.762Z,100380.24
2022-08-28T18:36:51.920Z,100381.05
2022-08-28T18:39:39.367Z,100377.59
2022-08-28T18:42:13.394Z,100381.23
2022-08-28T18:44:46.524Z,100381.80
2022-08-28T18:47:20.800Z,100385.48
2022-08-28T18:49:53.672Z,100386.52
2022-08-28T18:52:24.452Z,100385.42
2022-08-28T18:55:00.601Z,100387.17
2022-08-28T18:57:33.956Z,100387.30
2022-08-28T19:00:11.936Z,100389.39
2022-08-28T19:02:45.009Z,100390.59
2022-08-28T19:05:16.155Z,100389.77
2022-08-28T19:07:50.011Z,100394.20
2022-08-28T19:10:32.699Z,100392.88
2022-08-28T19:13:09.505Z,100395.41
2022-08-28T19:15:40.867Z,100393.28
2022-08-28T19:18:14.908Z,100396.29
2022-08-28T19:20:46.162Z,100398.02
2022-08-28T19:23:18.009Z,100402.63
2022-08-28T19:25:49.416Z,100404.20
2022-08-28T19:28:23.281Z,100402.73
2022-08-28T19:30:54.174Z,100408.04
2022-08-28T19:33:28.149Z,100409.40
2022-08-28T19:36:00.343Z,100411.32
2022-08-28T19:38:39.850Z,100408.91
2022-08-28T19:41:11.481Z,100416.83
2022-08-28T19:43:43.263Z,100412.55
2022-08-28T19:46:22.045Z,100416.16
2022-08-28T19:48:53.145Z,100419.67
2022-08-28T19:51:33.416Z,100416.21
2022-08-28T19:54:05.868Z,100418.77
2022-08-28T19:56:44.268Z,100422.29
2022-08-28T19:59:26.963Z,100420.66
2022-08-28T20:01:58.063Z,100426.00
2022-08-28T20:04:28.765Z,100425.84
2022-08-28T20:07:00.847Z,100427.02
2022-08-28T20:09:36.965Z,100430.38
2022-08-28T20:12:07.916Z,100431.04
2022-08-28T20:14:41.701Z,100432.06
2022-08-28T20:17:14.312Z,100435.02
2022-08-28T20:19:50.144Z,100440.79
2022-08-28T20:22:25.868Z,100445.87
2022-08-28T20:24:56.780Z,100444.28
2022-08-28T20:27:28.055Z,100446.20
2022-08-28T20:30:00.650Z,100446.67
2022-08-28T20:32:47.443Z,100446.83
2022-08-28T20:35:22.109Z,100443.25
2022-08-28T20:37:57.826Z,100446.59
2022-08-28T20:40:29.933Z,100448.69
2022-08-28T20:43:05.317Z,100450.23
2022-08-28T20:45:37.313Z,100450.79
2022-08-28T20:48:08.237Z,100452.77
2022-08-28T20:50:41.427Z,100457.36
2022-08-28T20:53:12.812Z,100463.80
2022-08-28T20:56:04.389Z,100462.58
2022-08-28T20:58:37.471Z,100464.73
2022-08-28T21:01:08.802Z,100464.25
2022-08-28T21:03:45.182Z,100467.31
2022-08-28T21:06:18.383Z,100466.16
2022-08-28T21:08:50.524Z,100470.95
2022-08-28T21:11:21.687Z,100467.00
2022-08-28T21:13:52.998Z,100468.98
2022-08-28T21:16:25.942Z,100469.36
2022-08-28T21:19:16.741Z,100468.02
2022-08-28T21:21:57.192Z,100466.33
2022-08-28T21:24:30.227Z,100464.67
2022-08-28T21:27:09.588Z,100466.20
2022-08-28T21:29:44.090Z,100472.70
2022-08-28T21:32:19.814Z,100472.34
2022-08-28T21:34:55.186Z,100471.00
2022-08-28T21:37:28.560Z,100470.75
2022-08-28T21:40:00.872Z,100472.63
2022-08-28T21:42:34.171Z,100474.02
2022-08-28T21:45:11.261Z,100472.47
2022-08-28T21:47:46.209Z,100469.93
2022-08-28T21:50:18.419Z,100471.52
2022-08-28T21:52:51.704Z,100473.96
2022-08-28T21:55:25.180Z,100473.09
2022-08-28T21:58:00.807Z,100472.15
2022-08-28T22:00:33.215Z,100475.11
2022-08-28T22:03:12.573Z,100475.71
2022-08-28T22:05:45.015Z,100473.17
2022-08-28T22:08:15.973Z,100476.07
2022-08-28T22:10:49.797Z,100477.86
2022-08-28T22:13:28.488Z,100477.48
2022-08-28T22:16:02.269Z,100474.86
2022-08-28T22:18:34.312Z,100475.43
2022-08-28T22:21:24.292Z,100478.44
2022-08-28T22:23:57.633Z,100473.58
2022-08-28T22:26:30.959Z,100476.48
2022-08-28T22:29:05.645Z,100478.61
2022-08-28T22:31:41.367Z,100476.15
2022-08-28T22:34:20.235Z,100477.25
2022-08-28T22:36:51.449Z,100476.20
2022-08-28T22:39:30.182Z,100480.23
2022-08-28T22:42:06.604Z,100478.52
2022-08-28T22:44:41.571Z,100476.80
2022-08-28T22:47:18.875Z,100475.03
2022-08-28T22:49:51.115Z,100475.48
2022-08-28T22:52:23.136Z,100475.37
2022-08-28T22:54:54.885Z,100476.32
2022-08-28T22:57:29.268Z,100477.52
2022-08-28T23:00:06.508Z,100474.27
2022-08-28T23:02:38.917Z,100474.83
2022-08-28T23:05:11.601Z,100474.56
2022-08-28T23:07:46.997Z,100472.95
2022-08-28T23:10:19.376Z,100474.44
2022-08-28T23:12:51.546Z,100473.65
2022-08-28T23:15:23.442Z,100473.36
2022-08-28T23:17:55.629Z,100477.61
2022-08-28T23:20:28.839Z,100473.20
2022-08-28T23:23:02.832Z,100475.02
2022-08-28T23:25:36.067Z,100476.44
2022-08-28T23:28:09.644Z,100478.23
2022-08-28T23:30:44.059Z,100477.98
2022-08-28T23:33:23.698Z,100482.19
2022-08-28T23:35:55.388Z,100484.61
2022-08-28T23:38:27.189Z,100485.59
2022-08-28T23:40:58.673Z,100487.11
2022-08-28T23:43:31.253Z,100489.36
2022-08-28T23:46:02.818Z,100494.85
2022-08-28T23:48:33.748Z,100504.80
2022-08-28T23:51:12.105Z,100500.91
2022-08-28T23:53:45.972Z,100495.38
2022-08-28T23:56:19.740Z,100493.46
2022-08-28T23:58:54.059Z,100493.08
